createdAt,value
2019-05-26T00:01:05.924Z,49.24
2019-05-26T00:03:34.541Z,50.24
2019-05-26T00:06:03.217Z,50.24
2019-05-26T00:08:31.819Z,50.25
2019-05-26T00:11:00.893Z,50.25
2019-05-26T00:13:29.573Z,48.55
2019-05-26T00:15:58.681Z,48.55
2019-05-26T00:18:27.353Z,51.67
2019-05-26T00:20:56.527Z,51.67
2019-05-26T00:23:25.144Z,51.40
2019-05-26T00:25:53.821Z,51.40
2019-05-26T00:28:23.166Z,49.45
2019-05-26T00:30:52.059Z,48.30
2019-05-26T00:33:20.990Z,48.30
2019-05-26T00:35:49.659Z,49.65
2019-05-26T00:38:18.325Z,49.65
2019-05-26T00:40:47.278Z,50.57
2019-05-26T00:43:15.999Z,49.50
2019-05-26T00:45:44.747Z,49.65
2019-05-26T00:48:13.465Z,51.68
2019-05-26T00:50:42.114Z,51.68
2019-05-26T00:53:10.851Z,51.39
2019-05-26T00:55:39.734Z,51.31
2019-05-26T00:58:08.488Z,50.56
2019-05-26T01:00:38.919Z,50.56
2019-05-26T01:03:08.688Z,50.74
2019-05-26T01:05:37.352Z,50.31
2019-05-26T01:08:07.012Z,49.49
2019-05-26T01:10:35.953Z,50.83
2019-05-26T01:13:04.800Z,50.00
2019-05-26T01:15:33.586Z,50.00
2019-05-26T01:18:02.528Z,51.61
2019-05-26T01:20:31.287Z,51.18
2019-05-26T01:23:00.190Z,51.18
2019-05-26T01:25:28.790Z,49.33
2019-05-26T01:27:57.565Z,51.42
2019-05-26T01:30:37.932Z,52.14
2019-05-26T01:33:07.365Z,52.14
2019-05-26T01:35:39.380Z,50.82
2019-05-26T01:38:22.383Z,51.72
2019-05-26T01:40:41.054Z,51.54
2019-05-26T01:43:10.271Z,50.65
2019-05-26T01:45:39.297Z,50.24
2019-05-26T01:48:08.394Z,51.71
2019-05-26T01:50:37.855Z,49.40
2019-05-26T01:53:07.143Z,51.13
2019-05-26T01:55:35.902Z,52.13
2019-05-26T01:58:04.756Z,51.15
2019-05-26T02:00:33.822Z,51.14
2019-05-26T02:03:02.699Z,50.80
2019-05-26T02:05:31.414Z,50.68
2019-05-26T02:08:00.185Z,50.68
2019-05-26T02:10:29.073Z,49.96
2019-05-26T02:12:57.698Z,50.74
2019-05-26T02:15:26.738Z,51.44
2019-05-26T02:17:55.398Z,49.35
2019-05-26T02:20:24.320Z,50.95
2019-05-26T02:22:54.053Z,50.32
2019-05-26T02:25:22.729Z,51.53
2019-05-26T02:27:51.375Z,51.53
2019-05-26T02:30:20.567Z,51.41
2019-05-26T02:32:49.729Z,51.62
2019-05-26T02:35:18.918Z,51.02
2019-05-26T02:37:47.524Z,51.39
2019-05-26T02:40:18.465Z,50.82
2019-05-26T02:42:47.160Z,51.54
2019-05-26T02:45:16.533Z,51.25
2019-05-26T02:47:45.680Z,51.25
2019-05-26T02:50:15.315Z,50.52
2019-05-26T02:52:44.066Z,49.64
2019-05-26T02:55:14.529Z,50.65
2019-05-26T02:57:43.171Z,50.65
2019-05-26T03:00:12.568Z,51.05
2019-05-26T03:02:41.363Z,51.08
2019-05-26T03:05:11.063Z,51.37
2019-05-26T03:07:42.502Z,51.87
2019-05-26T03:10:11.614Z,50.57
2019-05-26T03:12:42.594Z,49.30
2019-05-26T03:15:12.020Z,49.30
2019-05-26T03:17:42.547Z,50.27
2019-05-26T03:20:12.904Z,50.37
2019-05-26T03:22:41.883Z,49.63
2019-05-26T03:25:11.070Z,49.85
2019-05-26T03:27:39.928Z,49.85
2019-05-26T03:30:08.743Z,48.75
2019-05-26T03:32:37.681Z,48.66
2019-05-26T03:35:07.386Z,48.06
2019-05-26T03:37:36.071Z,48.06
2019-05-26T03:40:06.472Z,47.53
2019-05-26T03:42:35.202Z,47.53
2019-05-26T03:45:04.217Z,48.25
2019-05-26T03:47:33.065Z,49.08
2019-05-26T03:50:01.996Z,49.08
2019-05-26T03:52:31.047Z,48.59
2019-05-26T03:54:59.940Z,48.11
2019-05-26T03:57:29.321Z,49.68
2019-05-26T03:59:58.187Z,48.27
2019-05-26T04:02:27.019Z,48.23
2019-05-26T04:04:55.712Z,48.23
2019-05-26T04:07:24.719Z,47.92
2019-05-26T04:10:04.604Z,48.06
2019-05-26T04:12:24.515Z,47.69
2019-05-26T04:14:53.232Z,48.91
2019-05-26T04:17:22.249Z,47.93
2019-05-26T04:19:51.450Z,47.19
2019-05-26T04:22:20.419Z,47.32
2019-05-26T04:24:49.179Z,47.77
2019-05-26T04:27:17.764Z,49.15
2019-05-26T04:29:46.637Z,47.93
2019-05-26T04:32:16.638Z,47.08
2019-05-26T04:34:45.833Z,47.27
2019-05-26T04:37:15.281Z,47.09
2019-05-26T04:39:43.937Z,46.31
2019-05-26T04:42:12.623Z,46.78
2019-05-26T04:44:41.773Z,45.47
2019-05-26T04:47:10.671Z,45.06
2019-05-26T04:49:39.380Z,44.54
2019-05-26T04:52:08.102Z,45.36
2019-05-26T04:54:36.730Z,46.95
2019-05-26T04:57:05.610Z,47.12
2019-05-26T04:59:34.246Z,48.35
2019-05-26T05:02:02.886Z,46.09
2019-05-26T05:04:31.653Z,47.11
2019-05-26T05:07:00.816Z,45.41
2019-05-26T05:09:29.853Z,46.03
2019-05-26T05:11:58.528Z,46.84
2019-05-26T05:14:27.618Z,47.75
2019-05-26T05:16:56.253Z,47.61
2019-05-26T05:19:24.881Z,46.05
2019-05-26T05:21:53.691Z,45.07
2019-05-26T05:24:22.429Z,43.77
2019-05-26T05:26:51.047Z,43.28
2019-05-26T05:29:19.976Z,42.00
2019-05-26T05:31:48.575Z,41.59
2019-05-26T05:34:17.202Z,41.65
2019-05-26T05:36:45.905Z,41.07
2019-05-26T05:39:14.871Z,40.05
2019-05-26T05:41:44.026Z,40.58
2019-05-26T05:44:12.957Z,40.68
2019-05-26T05:46:41.953Z,39.17
2019-05-26T05:49:10.597Z,39.17
2019-05-26T05:51:39.266Z,39.46
2019-05-26T05:54:08.134Z,39.75
2019-05-26T05:56:36.901Z,39.21
2019-05-26T05:59:05.657Z,39.17
2019-05-26T06:01:34.501Z,38.16
2019-05-26T06:04:03.444Z,38.26
2019-05-26T06:06:32.082Z,38.46
2019-05-26T06:09:00.728Z,37.24
2019-05-26T06:11:29.353Z,39.04
2019-05-26T06:13:58.448Z,39.37
2019-05-26T06:16:27.154Z,39.70
2019-05-26T06:18:55.765Z,39.99
2019-05-26T06:21:27.540Z,40.62
2019-05-26T06:23:56.670Z,40.32
2019-05-26T06:26:25.396Z,39.73
2019-05-26T06:28:54.286Z,41.16
2019-05-26T06:31:22.909Z,41.07
2019-05-26T06:33:51.552Z,42.79
2019-05-26T06:36:20.241Z,42.44
2019-05-26T06:38:48.925Z,44.21
2019-05-26T06:41:32.457Z,44.79
2019-05-26T06:43:48.194Z,42.61
2019-05-26T06:46:16.914Z,40.89
2019-05-26T06:48:45.893Z,42.67
2019-05-26T06:51:15.461Z,44.17
2019-05-26T06:53:44.149Z,44.30
2019-05-26T06:56:12.980Z,41.97
2019-05-26T06:58:41.661Z,40.56
2019-05-26T07:01:10.457Z,41.45
2019-05-26T07:03:39.400Z,41.62
2019-05-26T07:06:08.416Z,37.80
2019-05-26T07:08:37.408Z,37.69
2019-05-26T07:11:06.451Z,38.09
2019-05-26T07:13:35.171Z,36.87
2019-05-26T07:16:03.880Z,34.78
2019-05-26T07:18:33.511Z,33.39
2019-05-26T07:21:03.026Z,33.64
2019-05-26T07:23:32.056Z,31.64
2019-05-26T07:26:00.979Z,32.58
2019-05-26T07:28:29.714Z,32.40
2019-05-26T07:30:59.103Z,29.96
2019-05-26T07:33:28.207Z,31.06
2019-05-26T07:35:57.157Z,29.77
2019-05-26T07:38:25.974Z,29.26
2019-05-26T07:40:54.989Z,29.06
2019-05-26T07:43:27.873Z,28.41
2019-05-26T07:45:54.567Z,28.66
2019-05-26T07:48:23.246Z,28.92
2019-05-26T07:50:51.891Z,30.07
2019-05-26T07:53:20.947Z,28.47
2019-05-26T07:55:49.739Z,28.49
2019-05-26T07:58:18.599Z,28.74
2019-05-26T08:00:47.291Z,30.38
2019-05-26T08:03:16.113Z,30.67
2019-05-26T08:05:44.748Z,30.75
2019-05-26T08:08:13.759Z,31.08
2019-05-26T08:10:42.515Z,29.96
2019-05-26T08:13:11.140Z,28.93
2019-05-26T08:15:39.960Z,28.25
2019-05-26T08:18:08.637Z,28.34
2019-05-26T08:20:37.371Z,27.62
2019-05-26T08:23:06.002Z,27.03
2019-05-26T08:25:35.059Z,29.17
2019-05-26T08:28:03.894Z,28.98
2019-05-26T08:30:32.666Z,30.14
2019-05-26T08:33:02.526Z,30.56
2019-05-26T08:35:31.814Z,30.13
2019-05-26T08:38:02.808Z,30.01
2019-05-26T08:40:33.335Z,29.46
2019-05-26T08:43:02.294Z,28.54
2019-05-26T08:45:31.341Z,27.71
2019-05-26T08:48:00.352Z,27.16
2019-05-26T08:50:29.024Z,27.00
2019-05-26T08:52:57.706Z,28.25
2019-05-26T08:55:26.481Z,28.02
2019-05-26T08:57:55.072Z,25.49
2019-05-26T09:00:24.326Z,25.62
2019-05-26T09:02:53.306Z,24.92
2019-05-26T09:05:21.992Z,26.23
2019-05-26T09:07:50.680Z,25.86
2019-05-26T09:10:19.734Z,25.00
2019-05-26T09:13:00.318Z,25.90
2019-05-26T09:15:18.848Z,26.96
2019-05-26T09:17:48.107Z,26.02
2019-05-26T09:20:16.960Z,27.20
2019-05-26T09:22:45.741Z,28.22
2019-05-26T09:25:14.414Z,29.39
2019-05-26T09:27:43.180Z,29.17
2019-05-26T09:30:11.851Z,28.75
2019-05-26T09:32:40.578Z,27.38
2019-05-26T09:35:09.304Z,28.12
2019-05-26T09:37:38.058Z,27.08
2019-05-26T09:40:07.114Z,27.80
2019-05-26T09:42:35.874Z,28.41
2019-05-26T09:45:05.364Z,28.41
2019-05-26T09:47:34.126Z,26.98
2019-05-26T09:50:02.733Z,24.82
2019-05-26T09:52:31.479Z,25.83
2019-05-26T09:55:00.389Z,24.35
2019-05-26T09:57:29.095Z,24.27
2019-05-26T09:59:57.986Z,23.71
2019-05-26T10:02:26.731Z,23.97
2019-05-26T10:04:55.499Z,23.25
2019-05-26T10:07:24.569Z,23.46
2019-05-26T10:09:53.348Z,23.23
2019-05-26T10:12:21.978Z,23.90
2019-05-26T10:14:50.778Z,23.30
2019-05-26T10:17:23.054Z,22.83
2019-05-26T10:19:49.941Z,21.66
2019-05-26T10:22:18.577Z,22.92
2019-05-26T10:24:47.216Z,22.74
2019-05-26T10:27:15.891Z,22.22
2019-05-26T10:29:45.076Z,22.82
2019-05-26T10:32:13.694Z,20.26
2019-05-26T10:34:42.381Z,19.82
2019-05-26T10:37:11.047Z,19.53
2019-05-26T10:39:39.743Z,21.00
2019-05-26T10:42:08.639Z,19.49
2019-05-26T10:44:37.621Z,19.04
2019-05-26T10:47:06.329Z,20.63
2019-05-26T10:49:35.332Z,20.98
2019-05-26T10:52:04.084Z,19.84
2019-05-26T10:54:32.795Z,20.75
2019-05-26T10:57:01.510Z,18.86
2019-05-26T10:59:31.268Z,19.03
2019-05-26T11:02:00.181Z,19.25
2019-05-26T11:04:28.801Z,19.08
2019-05-26T11:06:57.526Z,18.57
2019-05-26T11:09:26.557Z,17.73
2019-05-26T11:11:55.160Z,18.99
2019-05-26T11:14:23.936Z,19.42
2019-05-26T11:16:52.687Z,21.11
2019-05-26T11:19:21.847Z,21.75
2019-05-26T11:21:50.460Z,21.25
2019-05-26T11:24:19.381Z,23.33
2019-05-26T11:26:48.605Z,23.46
2019-05-26T11:29:17.252Z,23.99
2019-05-26T11:31:46.119Z,24.56
2019-05-26T11:34:15.150Z,25.19
2019-05-26T11:36:43.815Z,25.10
2019-05-26T11:39:12.508Z,24.39
2019-05-26T11:41:41.133Z,23.38
2019-05-26T11:44:18.046Z,25.22
2019-05-26T11:46:40.533Z,26.47
2019-05-26T11:49:09.185Z,26.06
2019-05-26T11:51:37.918Z,26.80
2019-05-26T11:54:06.894Z,28.28
2019-05-26T11:56:35.897Z,28.36
2019-05-26T11:59:04.975Z,29.01
2019-05-26T12:01:33.794Z,27.41
2019-05-26T12:04:02.421Z,27.91
2019-05-26T12:06:31.158Z,27.89
2019-05-26T12:08:59.816Z,28.07
2019-05-26T12:11:28.681Z,28.63
2019-05-26T12:13:57.312Z,29.08
2019-05-26T12:16:28.832Z,29.09
2019-05-26T12:18:56.441Z,28.99
2019-05-26T12:21:25.366Z,29.12
2019-05-26T12:23:55.135Z,28.94
2019-05-26T12:26:23.834Z,29.28
2019-05-26T12:28:52.603Z,29.54
2019-05-26T12:31:21.291Z,29.08
2019-05-26T12:33:49.953Z,28.45
2019-05-26T12:36:19.100Z,27.87
2019-05-26T12:38:50.966Z,28.66
2019-05-26T12:41:21.348Z,28.80
2019-05-26T12:43:49.966Z,30.14
2019-05-26T12:46:18.699Z,29.19
2019-05-26T12:48:47.410Z,30.11
2019-05-26T12:51:16.404Z,29.04
2019-05-26T12:53:45.590Z,29.54
2019-05-26T12:56:14.365Z,28.88
2019-05-26T12:58:43.253Z,29.18
2019-05-26T13:01:11.870Z,28.92
2019-05-26T13:03:40.563Z,29.82
2019-05-26T13:06:09.362Z,30.79
2019-05-26T13:08:38.146Z,30.46
2019-05-26T13:11:07.113Z,29.72
2019-05-26T13:13:35.847Z,30.45
2019-05-26T13:16:05.032Z,31.30
2019-05-26T13:18:33.700Z,31.37
2019-05-26T13:21:02.602Z,29.36
2019-05-26T13:23:31.400Z,29.99
2019-05-26T13:26:00.257Z,29.39
2019-05-26T13:28:29.058Z,30.10
2019-05-26T13:30:58.925Z,30.30
2019-05-26T13:33:28.374Z,31.60
2019-05-26T13:35:57.055Z,31.69
2019-05-26T13:38:26.081Z,30.82
2019-05-26T13:40:54.761Z,32.06
2019-05-26T13:43:23.426Z,32.90
2019-05-26T13:45:54.470Z,32.98
2019-05-26T13:48:23.221Z,32.57
2019-05-26T13:50:52.077Z,31.73
2019-05-26T13:53:20.728Z,31.07
2019-05-26T13:55:49.684Z,29.93
2019-05-26T13:58:18.376Z,29.65
2019-05-26T14:00:47.651Z,29.70
2019-05-26T14:03:16.401Z,31.69
2019-05-26T14:05:45.302Z,30.83
2019-05-26T14:08:14.025Z,30.27
2019-05-26T14:10:42.718Z,31.15
2019-05-26T14:13:11.654Z,30.87
2019-05-26T14:15:40.598Z,30.64
2019-05-26T14:18:09.563Z,31.08
2019-05-26T14:20:39.288Z,30.58
2019-05-26T14:23:09.089Z,29.73
2019-05-26T14:25:37.809Z,30.95
2019-05-26T14:28:08.511Z,30.37
2019-05-26T14:30:37.272Z,30.27
2019-05-26T14:33:06.264Z,31.48
2019-05-26T14:35:35.012Z,31.40
2019-05-26T14:38:04.058Z,32.97
2019-05-26T14:40:33.083Z,33.55
2019-05-26T14:43:02.052Z,33.93
2019-05-26T14:45:31.113Z,32.91
2019-05-26T14:47:59.810Z,34.79
2019-05-26T14:50:28.653Z,33.64
2019-05-26T14:52:57.255Z,33.10
2019-05-26T14:55:26.607Z,32.92
2019-05-26T14:57:55.613Z,31.57
2019-05-26T15:00:25.996Z,32.73
2019-05-26T15:02:54.759Z,32.31
2019-05-26T15:05:23.513Z,32.40
2019-05-26T15:07:52.286Z,31.82
2019-05-26T15:10:22.699Z,31.30
2019-05-26T15:12:51.809Z,31.31
2019-05-26T15:15:20.629Z,32.26
2019-05-26T15:17:49.354Z,31.93
2019-05-26T15:20:18.218Z,33.00
2019-05-26T15:22:47.226Z,31.14
2019-05-26T15:25:15.976Z,32.30
2019-05-26T15:27:46.618Z,32.99
2019-05-26T15:30:16.022Z,32.65
2019-05-26T15:32:44.834Z,34.43
2019-05-26T15:35:13.797Z,34.42
2019-05-26T15:37:42.427Z,35.11
2019-05-26T15:40:11.464Z,35.23
2019-05-26T15:42:40.486Z,34.16
2019-05-26T15:45:09.371Z,35.13
2019-05-26T15:47:38.021Z,35.12
2019-05-26T15:50:06.848Z,33.98
2019-05-26T15:52:35.501Z,33.55
2019-05-26T15:55:04.415Z,34.45
2019-05-26T15:57:33.344Z,35.22
2019-05-26T16:00:02.086Z,35.07
2019-05-26T16:02:30.693Z,34.38
2019-05-26T16:04:59.830Z,33.02
2019-05-26T16:07:28.972Z,35.08
2019-05-26T16:09:57.772Z,33.79
2019-05-26T16:12:26.479Z,32.89
2019-05-26T16:14:55.271Z,33.32
2019-05-26T16:17:23.912Z,33.39
2019-05-26T16:19:52.816Z,33.87
2019-05-26T16:22:21.714Z,34.52
2019-05-26T16:24:50.669Z,34.23
2019-05-26T16:27:20.144Z,32.92
2019-05-26T16:29:49.223Z,33.68
2019-05-26T16:32:19.247Z,35.28
2019-05-26T16:34:47.921Z,33.92
2019-05-26T16:37:16.820Z,33.30
2019-05-26T16:39:45.818Z,35.12
2019-05-26T16:42:14.607Z,34.52
2019-05-26T16:44:43.314Z,33.92
2019-05-26T16:47:11.911Z,34.75
2019-05-26T16:49:40.500Z,34.71
2019-05-26T16:52:09.275Z,35.80
2019-05-26T16:54:37.984Z,36.29
2019-05-26T16:57:07.034Z,34.78
2019-05-26T16:59:36.321Z,35.89
2019-05-26T17:02:05.219Z,35.34
2019-05-26T17:04:33.938Z,36.20
2019-05-26T17:07:02.944Z,35.41
2019-05-26T17:09:31.941Z,34.87
2019-05-26T17:12:00.796Z,36.80
2019-05-26T17:14:29.630Z,36.30
2019-05-26T17:17:13.424Z,36.29
2019-05-26T17:19:29.152Z,36.49
2019-05-26T17:21:58.044Z,36.71
2019-05-26T17:24:27.825Z,36.59
2019-05-26T17:26:56.834Z,36.23
2019-05-26T17:29:25.679Z,36.52
2019-05-26T17:31:54.293Z,36.15
2019-05-26T17:34:23.069Z,38.84
2019-05-26T17:36:51.755Z,39.53
2019-05-26T17:39:20.508Z,42.22
2019-05-26T17:41:49.460Z,41.19
2019-05-26T17:44:18.235Z,40.27
2019-05-26T17:46:46.982Z,42.08
2019-05-26T17:49:16.125Z,41.18
2019-05-26T17:51:45.200Z,43.36
2019-05-26T17:54:14.106Z,43.40
2019-05-26T17:56:45.953Z,42.49
2019-05-26T17:59:14.861Z,42.60
2019-05-26T18:01:44.090Z,41.84
2019-05-26T18:04:16.463Z,41.62
2019-05-26T18:06:45.490Z,41.09
2019-05-26T18:09:14.183Z,40.74
2019-05-26T18:11:42.964Z,40.55
2019-05-26T18:14:11.824Z,41.20
2019-05-26T18:16:41.075Z,41.14
2019-05-26T18:19:09.991Z,39.79
2019-05-26T18:21:39.382Z,39.93
2019-05-26T18:24:09.547Z,40.60
2019-05-26T18:26:38.852Z,40.32
2019-05-26T18:29:07.644Z,41.03
2019-05-26T18:31:36.542Z,40.28
2019-05-26T18:34:08.303Z,40.21
2019-05-26T18:36:37.130Z,40.04
2019-05-26T18:39:08.016Z,37.89
2019-05-26T18:41:37.062Z,39.01
2019-05-26T18:44:06.086Z,39.74
2019-05-26T18:46:34.917Z,38.95
2019-05-26T18:49:04.478Z,39.33
2019-05-26T18:51:36.683Z,40.52
2019-05-26T18:54:05.982Z,39.47
2019-05-26T18:56:35.084Z,38.58
2019-05-26T18:59:03.902Z,39.56
2019-05-26T19:01:32.812Z,40.20
2019-05-26T19:04:01.741Z,40.62
2019-05-26T19:06:30.663Z,39.52
2019-05-26T19:08:59.392Z,40.09
2019-05-26T19:11:28.084Z,40.32
2019-05-26T19:13:56.830Z,40.69
2019-05-26T19:16:25.628Z,41.71
2019-05-26T19:18:54.537Z,39.89
2019-05-26T19:21:23.852Z,38.49
2019-05-26T19:23:52.672Z,40.20
2019-05-26T19:26:21.632Z,39.72
2019-05-26T19:28:50.322Z,40.25
2019-05-26T19:31:19.119Z,43.26
2019-05-26T19:33:48.304Z,40.41
2019-05-26T19:36:16.986Z,40.59
2019-05-26T19:38:45.755Z,41.37
2019-05-26T19:41:14.401Z,41.73
2019-05-26T19:43:43.285Z,40.21
2019-05-26T19:46:12.208Z,41.44
2019-05-26T19:48:41.340Z,41.54
2019-05-26T19:51:10.019Z,40.65
2019-05-26T19:53:38.903Z,40.73
2019-05-26T19:56:07.757Z,41.79
2019-05-26T19:58:36.895Z,42.12
2019-05-26T20:01:05.839Z,42.17
2019-05-26T20:03:34.552Z,42.60
2019-05-26T20:06:03.475Z,42.32
2019-05-26T20:08:32.158Z,41.87
2019-05-26T20:11:01.142Z,41.52
2019-05-26T20:13:29.827Z,40.44
2019-05-26T20:15:58.567Z,40.09
2019-05-26T20:18:27.336Z,39.14
2019-05-26T20:20:56.008Z,41.24
2019-05-26T20:23:24.684Z,40.34
2019-05-26T20:25:53.406Z,40.27
2019-05-26T20:28:22.371Z,42.16
2019-05-26T20:30:51.372Z,42.86
2019-05-26T20:33:20.060Z,42.86
2019-05-26T20:35:49.179Z,41.13
2019-05-26T20:38:17.809Z,42.61
2019-05-26T20:40:46.480Z,42.10
2019-05-26T20:43:15.878Z,43.26
2019-05-26T20:45:44.581Z,42.22
2019-05-26T20:48:13.601Z,41.45
2019-05-26T20:50:42.221Z,39.59
2019-05-26T20:53:10.972Z,40.91
2019-05-26T20:55:39.641Z,41.90
2019-05-26T20:58:08.353Z,42.50
2019-05-26T21:00:37.518Z,41.51
2019-05-26T21:03:06.478Z,42.42
2019-05-26T21:05:35.489Z,43.13
2019-05-26T21:08:04.236Z,42.40
2019-05-26T21:10:33.034Z,43.76
2019-05-26T21:13:01.734Z,44.24
2019-05-26T21:15:30.661Z,43.93
2019-05-26T21:17:59.340Z,42.75
2019-05-26T21:20:28.478Z,41.54
2019-05-26T21:22:57.351Z,42.38
2019-05-26T21:25:26.172Z,42.60
2019-05-26T21:27:54.855Z,44.42
2019-05-26T21:30:23.789Z,43.42
2019-05-26T21:32:53.166Z,42.60
2019-05-26T21:35:21.946Z,42.58
2019-05-26T21:37:50.700Z,43.92
2019-05-26T21:40:19.854Z,43.14
2019-05-26T21:42:49.132Z,43.81
2019-05-26T21:45:17.922Z,43.45
2019-05-26T21:47:46.607Z,43.42
2019-05-26T21:50:15.464Z,44.79
2019-05-26T21:52:44.322Z,44.88
2019-05-26T21:55:13.279Z,43.20
2019-05-26T21:57:41.911Z,42.81
2019-05-26T22:00:13.229Z,43.65
2019-05-26T22:02:42.147Z,41.68
2019-05-26T22:05:11.434Z,41.31
2019-05-26T22:07:40.159Z,40.27
2019-05-26T22:10:09.537Z,42.35
2019-05-26T22:12:38.299Z,41.40
2019-05-26T22:15:07.815Z,42.09
2019-05-26T22:17:36.580Z,42.76
2019-05-26T22:20:05.386Z,41.02
2019-05-26T22:22:34.018Z,40.98
2019-05-26T22:25:02.694Z,43.08
2019-05-26T22:27:31.406Z,43.66
2019-05-26T22:30:00.044Z,41.23
2019-05-26T22:32:28.691Z,44.08
2019-05-26T22:34:57.360Z,44.86
2019-05-26T22:37:26.308Z,44.49
2019-05-26T22:39:54.951Z,48.17
2019-05-26T22:42:24.096Z,46.47
2019-05-26T22:44:52.687Z,43.07
2019-05-26T22:47:21.843Z,41.68
2019-05-26T22:49:50.587Z,42.94
2019-05-26T22:52:19.273Z,44.79
2019-05-26T22:54:48.581Z,43.24
2019-05-26T22:57:17.335Z,45.07
2019-05-26T22:59:46.304Z,44.07
2019-05-26T23:02:14.909Z,45.80
2019-05-26T23:04:43.516Z,46.53
2019-05-26T23:07:12.231Z,47.71
2019-05-26T23:09:40.849Z,46.13
2019-05-26T23:12:09.523Z,48.25
2019-05-26T23:14:38.141Z,48.50
2019-05-26T23:17:06.801Z,49.44
2019-05-26T23:19:35.468Z,48.62
2019-05-26T23:22:04.216Z,46.23
2019-05-26T23:24:32.868Z,46.15
2019-05-26T23:27:01.519Z,48.41
2019-05-26T23:29:30.160Z,48.27
2019-05-26T23:31:58.804Z,49.62
2019-05-26T23:34:27.686Z,47.77
2019-05-26T23:36:56.749Z,48.86
2019-05-26T23:39:25.413Z,47.43
2019-05-26T23:41:54.284Z,47.67
2019-05-26T23:44:22.919Z,49.43
2019-05-26T23:46:51.521Z,48.41
2019-05-26T23:49:20.200Z,48.28
2019-05-26T23:51:49.041Z,49.70
2019-05-26T23:54:17.644Z,50.18
2019-05-26T23:56:46.712Z,50.41
2019-05-26T23:59:15.355Z,48.49
